sensor_id;sensor_type;location;lat;lon;timestamp;P1;durP1;ratioP1;P2;durP2;ratioP2
71207;SDS011;58938;49.868;8.646;2023-08-01T00:02:18;9.23;;;3.53;;
71207;SDS011;58938;49.868;8.646;2023-08-01T00:04:44;8.50;;;3.83;;
71207;SDS011;58938;49.868;8.646;2023-08-01T00:07:10;11.13;;;4.15;;
71207;SDS011;58938;49.868;8.646;2023-08-01T00:09:35;13.00;;;3.83;;
71207;SDS011;58938;49.868;8.646;2023-08-01T00:12:01;7.60;;;3.63;;
71207;SDS011;58938;49.868;8.646;2023-08-01T00:14:27;8.75;;;3.58;;
71207;SDS011;58938;49.868;8.646;2023-08-01T00:16:53;9.45;;;3.72;;
71207;SDS011;58938;49.868;8.646;2023-08-01T00:19:19;8.57;;;3.17;;
71207;SDS011;58938;49.868;8.646;2023-08-01T00:21:45;9.57;;;3.88;;
71207;SDS011;58938;49.868;8.646;2023-08-01T00:24:12;9.85;;;3.70;;
71207;SDS011;58938;49.868;8.646;2023-08-01T00:26:38;10.18;;;3.85;;
71207;SDS011;58938;49.868;8.646;2023-08-01T00:29:04;9.53;;;3.40;;
71207;SDS011;58938;49.868;8.646;2023-08-01T00:31:29;9.07;;;3.85;;
71207;SDS011;58938;49.868;8.646;2023-08-01T00:33:55;8.50;;;3.58;;
71207;SDS011;58938;49.868;8.646;2023-08-01T00:36:22;18.55;;;3.72;;
71207;SDS011;58938;49.868;8.646;2023-08-01T00:38:48;10.63;;;4.23;;
71207;SDS011;58938;49.868;8.646;2023-08-01T00:41:14;9.07;;;4.07;;
71207;SDS011;58938;49.868;8.646;2023-08-01T00:43:40;8.50;;;3.75;;
71207;SDS011;58938;49.868;8.646;2023-08-01T00:46:06;8.15;;;3.78;;
71207;SDS011;58938;49.868;8.646;2023-08-01T00:48:33;8.87;;;3.70;;
71207;SDS011;58938;49.868;8.646;2023-08-01T00:51:00;7.93;;;3.85;;
71207;SDS011;58938;49.868;8.646;2023-08-01T00:53:27;10.60;;;3.78;;
71207;SDS011;58938;49.868;8.646;2023-08-01T00:55:53;9.90;;;4.75;;
71207;SDS011;58938;49.868;8.646;2023-08-01T00:58:19;7.60;;;4.10;;
71207;SDS011;58938;49.868;8.646;2023-08-01T01:00:46;9.63;;;4.37;;
71207;SDS011;58938;49.868;8.646;2023-08-01T01:03:13;10.00;;;4.50;;
71207;SDS011;58938;49.868;8.646;2023-08-01T01:05:39;7.93;;;3.85;;
71207;SDS011;58938;49.868;8.646;2023-08-01T01:08:06;12.25;;;4.07;;
71207;SDS011;58938;49.868;8.646;2023-08-01T01:10:33;10.27;;;4.13;;
71207;SDS011;58938;49.868;8.646;2023-08-01T01:12:58;9.60;;;4.20;;
71207;SDS011;58938;49.868;8.646;2023-08-01T01:15:24;10.65;;;4.40;;
71207;SDS011;58938;49.868;8.646;2023-08-01T01:17:50;12.25;;;4.50;;
71207;SDS011;58938;49.868;8.646;2023-08-01T01:20:20;9.63;;;4.43;;
71207;SDS011;58938;49.868;8.646;2023-08-01T01:22:46;8.90;;;4.30;;
71207;SDS011;58938;49.868;8.646;2023-08-01T01:25:12;8.10;;;3.88;;
71207;SDS011;58938;49.868;8.646;2023-08-01T01:27:38;8.43;;;3.33;;
71207;SDS011;58938;49.868;8.646;2023-08-01T01:30:05;12.40;;;4.22;;
71207;SDS011;58938;49.868;8.646;2023-08-01T01:32:31;9.87;;;3.77;;
71207;SDS011;58938;49.868;8.646;2023-08-01T01:34:57;9.90;;;3.70;;
71207;SDS011;58938;49.868;8.646;2023-08-01T01:37:23;10.07;;;4.65;;
71207;SDS011;58938;49.868;8.646;2023-08-01T01:39:49;10.70;;;4.55;;
71207;SDS011;58938;49.868;8.646;2023-08-01T01:42:15;10.10;;;4.20;;
71207;SDS011;58938;49.868;8.646;2023-08-01T01:44:41;11.93;;;4.03;;
71207;SDS011;58938;49.868;8.646;2023-08-01T01:47:07;11.32;;;4.10;;
71207;SDS011;58938;49.868;8.646;2023-08-01T01:49:33;9.68;;;4.10;;
71207;SDS011;58938;49.868;8.646;2023-08-01T01:51:59;9.77;;;4.43;;
71207;SDS011;58938;49.868;8.646;2023-08-01T01:54:25;9.13;;;3.90;;
71207;SDS011;58938;49.868;8.646;2023-08-01T01:56:51;10.88;;;3.90;;
71207;SDS011;58938;49.868;8.646;2023-08-01T01:59:17;9.77;;;4.17;;
71207;SDS011;58938;49.868;8.646;2023-08-01T02:01:43;10.23;;;4.20;;
71207;SDS011;58938;49.868;8.646;2023-08-01T02:04:08;13.02;;;4.97;;
71207;SDS011;58938;49.868;8.646;2023-08-01T02:06:34;9.88;;;4.07;;
71207;SDS011;58938;49.868;8.646;2023-08-01T02:09:00;11.10;;;4.90;;
71207;SDS011;58938;49.868;8.646;2023-08-01T02:11:26;10.23;;;4.55;;
71207;SDS011;58938;49.868;8.646;2023-08-01T02:13:52;13.90;;;4.93;;
71207;SDS011;58938;49.868;8.646;2023-08-01T02:16:19;8.65;;;3.97;;
71207;SDS011;58938;49.868;8.646;2023-08-01T02:18:45;8.55;;;4.10;;
71207;SDS011;58938;49.868;8.646;2023-08-01T02:21:11;12.50;;;4.33;;
71207;SDS011;58938;49.868;8.646;2023-08-01T02:23:37;9.73;;;4.28;;
71207;SDS011;58938;49.868;8.646;2023-08-01T02:26:03;9.48;;;4.03;;
71207;SDS011;58938;49.868;8.646;2023-08-01T02:28:29;11.70;;;4.30;;
71207;SDS011;58938;49.868;8.646;2023-08-01T02:30:55;8.97;;;4.47;;
71207;SDS011;58938;49.868;8.646;2023-08-01T02:33:21;12.63;;;5.07;;
71207;SDS011;58938;49.868;8.646;2023-08-01T02:35:47;11.05;;;3.70;;
71207;SDS011;58938;49.868;8.646;2023-08-01T02:38:13;8.68;;;4.22;;
71207;SDS011;58938;49.868;8.646;2023-08-01T02:40:39;8.47;;;3.93;;
71207;SDS011;58938;49.868;8.646;2023-08-01T02:43:05;9.93;;;4.35;;
71207;SDS011;58938;49.868;8.646;2023-08-01T02:45:31;10.00;;;4.38;;
71207;SDS011;58938;49.868;8.646;2023-08-01T02:47:56;12.52;;;4.25;;
71207;SDS011;58938;49.868;8.646;2023-08-01T02:50:22;8.00;;;4.23;;
71207;SDS011;58938;49.868;8.646;2023-08-01T02:52:48;9.63;;;4.65;;
71207;SDS011;58938;49.868;8.646;2023-08-01T02:55:14;7.75;;;3.97;;
71207;SDS011;58938;49.868;8.646;2023-08-01T02:57:40;9.77;;;4.13;;
71207;SDS011;58938;49.868;8.646;2023-08-01T03:00:06;10.40;;;4.45;;
71207;SDS011;58938;49.868;8.646;2023-08-01T03:02:36;9.07;;;3.90;;
71207;SDS011;58938;49.868;8.646;2023-08-01T03:05:02;8.13;;;3.55;;
71207;SDS011;58938;49.868;8.646;2023-08-01T03:07:29;8.82;;;3.85;;
71207;SDS011;58938;49.868;8.646;2023-08-01T03:09:55;8.60;;;3.80;;
71207;SDS011;58938;49.868;8.646;2023-08-01T03:12:21;8.10;;;3.53;;
71207;SDS011;58938;49.868;8.646;2023-08-01T03:14:47;9.25;;;3.90;;
71207;SDS011;58938;49.868;8.646;2023-08-01T03:17:13;7.25;;;3.42;;
71207;SDS011;58938;49.868;8.646;2023-08-01T03:19:39;8.00;;;3.87;;
71207;SDS011;58938;49.868;8.646;2023-08-01T03:22:05;8.75;;;3.58;;
71207;SDS011;58938;49.868;8.646;2023-08-01T03:24:32;10.23;;;4.25;;
71207;SDS011;58938;49.868;8.646;2023-08-01T03:26:58;9.48;;;3.60;;
71207;SDS011;58938;49.868;8.646;2023-08-01T03:29:24;10.15;;;3.88;;
71207;SDS011;58938;49.868;8.646;2023-08-01T03:31:50;9.73;;;3.77;;
71207;SDS011;58938;49.868;8.646;2023-08-01T03:34:16;11.43;;;4.38;;
71207;SDS011;58938;49.868;8.646;2023-08-01T03:36:42;9.23;;;3.80;;
71207;SDS011;58938;49.868;8.646;2023-08-01T03:39:08;9.03;;;4.10;;
71207;SDS011;58938;49.868;8.646;2023-08-01T03:41:35;8.82;;;4.32;;
71207;SDS011;58938;49.868;8.646;2023-08-01T03:44:01;12.57;;;4.15;;
71207;SDS011;58938;49.868;8.646;2023-08-01T03:46:27;9.80;;;4.68;;
71207;SDS011;58938;49.868;8.646;2023-08-01T03:48:53;10.33;;;3.90;;
71207;SDS011;58938;49.868;8.646;2023-08-01T03:51:19;10.32;;;4.72;;
71207;SDS011;58938;49.868;8.646;2023-08-01T03:53:45;8.50;;;3.70;;
71207;SDS011;58938;49.868;8.646;2023-08-01T03:56:11;9.40;;;4.28;;
71207;SDS011;58938;49.868;8.646;2023-08-01T03:58:37;13.17;;;4.30;;
71207;SDS011;58938;49.868;8.646;2023-08-01T04:01:03;14.05;;;3.88;;
71207;SDS011;58938;49.868;8.646;2023-08-01T04:03:31;9.80;;;3.90;;
71207;SDS011;58938;49.868;8.646;2023-08-01T04:05:57;12.65;;;3.95;;
71207;SDS011;58938;49.868;8.646;2023-08-01T04:08:23;9.93;;;4.17;;
71207;SDS011;58938;49.868;8.646;2023-08-01T04:10:49;10.68;;;3.75;;
71207;SDS011;58938;49.868;8.646;2023-08-01T04:13:15;10.95;;;4.32;;
71207;SDS011;58938;49.868;8.646;2023-08-01T04:15:41;9.98;;;4.22;;
71207;SDS011;58938;49.868;8.646;2023-08-01T04:18:07;8.90;;;4.20;;
71207;SDS011;58938;49.868;8.646;2023-08-01T04:20:33;9.85;;;4.25;;
71207;SDS011;58938;49.868;8.646;2023-08-01T04:22:59;9.43;;;4.50;;
71207;SDS011;58938;49.868;8.646;2023-08-01T04:25:25;9.98;;;4.30;;
71207;SDS011;58938;49.868;8.646;2023-08-01T04:27:52;9.93;;;3.97;;
71207;SDS011;58938;49.868;8.646;2023-08-01T04:30:18;11.45;;;4.72;;
71207;SDS011;58938;49.868;8.646;2023-08-01T04:32:44;10.38;;;4.18;;
71207;SDS011;58938;49.868;8.646;2023-08-01T04:35:10;7.53;;;4.15;;
71207;SDS011;58938;49.868;8.646;2023-08-01T04:37:36;11.15;;;3.97;;
71207;SDS011;58938;49.868;8.646;2023-08-01T04:40:02;9.27;;;4.07;;
71207;SDS011;58938;49.868;8.646;2023-08-01T04:42:28;9.18;;;4.20;;
71207;SDS011;58938;49.868;8.646;2023-08-01T04:44:55;8.60;;;4.35;;
71207;SDS011;58938;49.868;8.646;2023-08-01T04:47:21;10.23;;;4.13;;
71207;SDS011;58938;49.868;8.646;2023-08-01T04:49:47;9.15;;;4.10;;
71207;SDS011;58938;49.868;8.646;2023-08-01T04:52:13;9.87;;;4.03;;
71207;SDS011;58938;49.868;8.646;2023-08-01T04:54:39;10.85;;;3.80;;
71207;SDS011;58938;49.868;8.646;2023-08-01T04:57:05;9.07;;;4.30;;
71207;SDS011;58938;49.868;8.646;2023-08-01T04:59:31;9.07;;;4.25;;
71207;SDS011;58938;49.868;8.646;2023-08-01T05:01:57;11.57;;;4.60;;
71207;SDS011;58938;49.868;8.646;2023-08-01T05:04:23;9.23;;;4.30;;
71207;SDS011;58938;49.868;8.646;2023-08-01T05:06:49;9.77;;;4.25;;
71207;SDS011;58938;49.868;8.646;2023-08-01T05:09:15;12.23;;;4.78;;
71207;SDS011;58938;49.868;8.646;2023-08-01T05:11:41;8.80;;;4.70;;
71207;SDS011;58938;49.868;8.646;2023-08-01T05:14:07;11.13;;;4.65;;
71207;SDS011;58938;49.868;8.646;2023-08-01T05:16:33;11.15;;;4.10;;
71207;SDS011;58938;49.868;8.646;2023-08-01T05:18:59;9.00;;;4.30;;
71207;SDS011;58938;49.868;8.646;2023-08-01T05:21:25;9.47;;;4.13;;
71207;SDS011;58938;49.868;8.646;2023-08-01T05:23:51;12.65;;;5.07;;
71207;SDS011;58938;49.868;8.646;2023-08-01T05:26:17;9.95;;;4.70;;
71207;SDS011;58938;49.868;8.646;2023-08-01T05:28:43;11.73;;;4.87;;
71207;SDS011;58938;49.868;8.646;2023-08-01T05:31:09;10.70;;;4.37;;
71207;SDS011;58938;49.868;8.646;2023-08-01T05:33:35;9.23;;;3.83;;
71207;SDS011;58938;49.868;8.646;2023-08-01T05:36:00;7.90;;;3.83;;
71207;SDS011;58938;49.868;8.646;2023-08-01T05:38:27;9.07;;;4.30;;
71207;SDS011;58938;49.868;8.646;2023-08-01T05:40:53;8.37;;;4.40;;
71207;SDS011;58938;49.868;8.646;2023-08-01T05:43:19;10.23;;;4.57;;
71207;SDS011;58938;49.868;8.646;2023-08-01T05:45:44;9.63;;;3.78;;
71207;SDS011;58938;49.868;8.646;2023-08-01T05:48:10;9.33;;;4.33;;
71207;SDS011;58938;49.868;8.646;2023-08-01T05:50:38;9.57;;;4.37;;
71207;SDS011;58938;49.868;8.646;2023-08-01T05:53:04;9.85;;;4.80;;
71207;SDS011;58938;49.868;8.646;2023-08-01T05:55:30;9.38;;;4.80;;
71207;SDS011;58938;49.868;8.646;2023-08-01T05:57:56;10.48;;;4.50;;
71207;SDS011;58938;49.868;8.646;2023-08-01T06:00:23;11.80;;;4.90;;
71207;SDS011;58938;49.868;8.646;2023-08-01T06:02:49;9.35;;;4.82;;
71207;SDS011;58938;49.868;8.646;2023-08-01T06:05:15;9.50;;;4.82;;
71207;SDS011;58938;49.868;8.646;2023-08-01T06:07:41;11.10;;;5.25;;
71207;SDS011;58938;49.868;8.646;2023-08-01T06:10:07;10.15;;;4.80;;
71207;SDS011;58938;49.868;8.646;2023-08-01T06:12:33;11.33;;;4.80;;
71207;SDS011;58938;49.868;8.646;2023-08-01T06:14:59;10.88;;;4.90;;
71207;SDS011;58938;49.868;8.646;2023-08-01T06:17:25;10.30;;;4.55;;
71207;SDS011;58938;49.868;8.646;2023-08-01T06:19:51;9.90;;;4.88;;
71207;SDS011;58938;49.868;8.646;2023-08-01T06:22:17;10.90;;;3.90;;
71207;SDS011;58938;49.868;8.646;2023-08-01T06:24:43;10.63;;;4.65;;
71207;SDS011;58938;49.868;8.646;2023-08-01T06:27:09;8.93;;;4.25;;
71207;SDS011;58938;49.868;8.646;2023-08-01T06:29:35;11.18;;;5.00;;
71207;SDS011;58938;49.868;8.646;2023-08-01T06:32:02;10.27;;;3.97;;
71207;SDS011;58938;49.868;8.646;2023-08-01T06:34:28;15.50;;;4.45;;
71207;SDS011;58938;49.868;8.646;2023-08-01T06:36:54;8.93;;;4.78;;
71207;SDS011;58938;49.868;8.646;2023-08-01T06:39:20;10.80;;;4.22;;
71207;SDS011;58938;49.868;8.646;2023-08-01T06:41:46;9.95;;;4.80;;
71207;SDS011;58938;49.868;8.646;2023-08-01T06:44:12;10.67;;;4.87;;
71207;SDS011;58938;49.868;8.646;2023-08-01T06:46:38;10.63;;;4.47;;
71207;SDS011;58938;49.868;8.646;2023-08-01T06:49:04;9.93;;;3.97;;
71207;SDS011;58938;49.868;8.646;2023-08-01T06:51:30;8.80;;;4.45;;
71207;SDS011;58938;49.868;8.646;2023-08-01T06:53:55;11.87;;;4.37;;
71207;SDS011;58938;49.868;8.646;2023-08-01T06:56:21;10.30;;;4.50;;
71207;SDS011;58938;49.868;8.646;2023-08-01T06:58:47;11.43;;;4.85;;
71207;SDS011;58938;49.868;8.646;2023-08-01T07:01:13;14.20;;;4.57;;
71207;SDS011;58938;49.868;8.646;2023-08-01T07:03:39;10.40;;;3.97;;
71207;SDS011;58938;49.868;8.646;2023-08-01T07:06:05;10.38;;;4.85;;
71207;SDS011;58938;49.868;8.646;2023-08-01T07:08:31;10.20;;;4.50;;
71207;SDS011;58938;49.868;8.646;2023-08-01T07:10:58;11.57;;;4.27;;
71207;SDS011;58938;49.868;8.646;2023-08-01T07:13:24;11.88;;;3.80;;
71207;SDS011;58938;49.868;8.646;2023-08-01T07:15:50;9.90;;;4.40;;
71207;SDS011;58938;49.868;8.646;2023-08-01T07:18:16;9.73;;;4.18;;
71207;SDS011;58938;49.868;8.646;2023-08-01T07:20:43;11.25;;;3.15;;
71207;SDS011;58938;49.868;8.646;2023-08-01T07:23:10;4.30;;;1.60;;
71207;SDS011;58938;49.868;8.646;2023-08-01T07:25:36;7.22;;;3.15;;
71207;SDS011;58938;49.868;8.646;2023-08-01T07:28:02;4.00;;;1.65;;
71207;SDS011;58938;49.868;8.646;2023-08-01T07:30:28;4.00;;;1.73;;
71207;SDS011;58938;49.868;8.646;2023-08-01T07:32:54;4.37;;;1.80;;
71207;SDS011;58938;49.868;8.646;2023-08-01T07:35:20;7.40;;;1.63;;
71207;SDS011;58938;49.868;8.646;2023-08-01T07:37:46;4.00;;;1.65;;
71207;SDS011;58938;49.868;8.646;2023-08-01T07:40:12;5.20;;;1.60;;
71207;SDS011;58938;49.868;8.646;2023-08-01T07:42:38;4.47;;;1.63;;
71207;SDS011;58938;49.868;8.646;2023-08-01T07:45:04;4.13;;;1.98;;
71207;SDS011;58938;49.868;8.646;2023-08-01T07:47:31;5.68;;;1.90;;
71207;SDS011;58938;49.868;8.646;2023-08-01T07:49:57;3.97;;;1.83;;
71207;SDS011;58938;49.868;8.646;2023-08-01T07:52:23;4.93;;;1.50;;
71207;SDS011;58938;49.868;8.646;2023-08-01T07:54:49;4.30;;;1.60;;
71207;SDS011;58938;49.868;8.646;2023-08-01T07:57:15;4.38;;;1.80;;
71207;SDS011;58938;49.868;8.646;2023-08-01T07:59:41;5.30;;;1.70;;
71207;SDS011;58938;49.868;8.646;2023-08-01T08:02:07;4.23;;;1.87;;
71207;SDS011;58938;49.868;8.646;2023-08-01T08:04:33;7.90;;;1.90;;
71207;SDS011;58938;49.868;8.646;2023-08-01T08:06:59;4.63;;;1.80;;
71207;SDS011;58938;49.868;8.646;2023-08-01T08:09:25;3.70;;;1.70;;
71207;SDS011;58938;49.868;8.646;2023-08-01T08:11:52;6.03;;;1.90;;
71207;SDS011;58938;49.868;8.646;2023-08-01T08:14:18;5.57;;;2.00;;
71207;SDS011;58938;49.868;8.646;2023-08-01T08:16:46;5.35;;;2.17;;
71207;SDS011;58938;49.868;8.646;2023-08-01T08:19:12;5.82;;;2.22;;
71207;SDS011;58938;49.868;8.646;2023-08-01T08:21:38;4.50;;;2.10;;
71207;SDS011;58938;49.868;8.646;2023-08-01T08:24:04;7.13;;;2.58;;
71207;SDS011;58938;49.868;8.646;2023-08-01T08:26:30;7.13;;;2.90;;
71207;SDS011;58938;49.868;8.646;2023-08-01T08:28:58;5.53;;;2.50;;
71207;SDS011;58938;49.868;8.646;2023-08-01T08:31:24;5.40;;;2.00;;
71207;SDS011;58938;49.868;8.646;2023-08-01T08:33:50;5.93;;;2.50;;
71207;SDS011;58938;49.868;8.646;2023-08-01T08:36:16;6.40;;;2.28;;
71207;SDS011;58938;49.868;8.646;2023-08-01T08:38:42;5.53;;;2.17;;
71207;SDS011;58938;49.868;8.646;2023-08-01T08:41:09;6.40;;;1.90;;
71207;SDS011;58938;49.868;8.646;2023-08-01T08:43:36;6.28;;;2.05;;
71207;SDS011;58938;49.868;8.646;2023-08-01T08:46:03;4.65;;;1.70;;
71207;SDS011;58938;49.868;8.646;2023-08-01T08:48:29;4.68;;;1.83;;
71207;SDS011;58938;49.868;8.646;2023-08-01T08:50:59;5.68;;;1.83;;
71207;SDS011;58938;49.868;8.646;2023-08-01T08:53:25;4.80;;;1.90;;
71207;SDS011;58938;49.868;8.646;2023-08-01T08:55:51;4.95;;;1.98;;
71207;SDS011;58938;49.868;8.646;2023-08-01T08:58:17;6.35;;;1.80;;
71207;SDS011;58938;49.868;8.646;2023-08-01T09:00:44;6.18;;;2.30;;
71207;SDS011;58938;49.868;8.646;2023-08-01T09:03:10;5.33;;;1.63;;
71207;SDS011;58938;49.868;8.646;2023-08-01T09:05:49;7.25;;;1.58;;
71207;SDS011;58938;49.868;8.646;2023-08-01T09:08:20;4.28;;;1.75;;
71207;SDS011;58938;49.868;8.646;2023-08-01T09:10:47;4.72;;;1.90;;
71207;SDS011;58938;49.868;8.646;2023-08-01T09:13:13;4.32;;;1.77;;
71207;SDS011;58938;49.868;8.646;2023-08-01T09:15:42;4.43;;;1.90;;
71207;SDS011;58938;49.868;8.646;2023-08-01T09:18:08;3.85;;;1.65;;
71207;SDS011;58938;49.868;8.646;2023-08-01T09:20:42;4.10;;;1.60;;
71207;SDS011;58938;49.868;8.646;2023-08-01T09:23:08;4.18;;;1.90;;
71207;SDS011;58938;49.868;8.646;2023-08-01T09:25:35;4.90;;;1.58;;
71207;SDS011;58938;49.868;8.646;2023-08-01T09:28:01;4.50;;;1.77;;
71207;SDS011;58938;49.868;8.646;2023-08-01T09:30:27;4.03;;;1.83;;
71207;SDS011;58938;49.868;8.646;2023-08-01T09:32:56;5.50;;;1.67;;
71207;SDS011;58938;49.868;8.646;2023-08-01T09:35:22;4.63;;;1.80;;
71207;SDS011;58938;49.868;8.646;2023-08-01T09:37:49;4.30;;;1.87;;
71207;SDS011;58938;49.868;8.646;2023-08-01T09:40:15;4.57;;;1.70;;
71207;SDS011;58938;49.868;8.646;2023-08-01T09:42:41;4.13;;;2.10;;
71207;SDS011;58938;49.868;8.646;2023-08-01T09:47:36;3.55;;;1.60;;
71207;SDS011;58938;49.868;8.646;2023-08-01T09:50:02;3.93;;;1.63;;
71207;SDS011;58938;49.868;8.646;2023-08-01T09:52:29;4.00;;;1.33;;
71207;SDS011;58938;49.868;8.646;2023-08-01T09:54:55;4.65;;;1.52;;
71207;SDS011;58938;49.868;8.646;2023-08-01T09:57:20;4.03;;;1.55;;
71207;SDS011;58938;49.868;8.646;2023-08-01T09:59:47;3.47;;;1.63;;
71207;SDS011;58938;49.868;8.646;2023-08-01T10:02:14;5.17;;;1.90;;
71207;SDS011;58938;49.868;8.646;2023-08-01T10:04:41;4.13;;;1.42;;
71207;SDS011;58938;49.868;8.646;2023-08-01T10:07:08;4.68;;;2.50;;
71207;SDS011;58938;49.868;8.646;2023-08-01T10:09:34;6.00;;;1.67;;
71207;SDS011;58938;49.868;8.646;2023-08-01T10:12:01;4.75;;;1.90;;
71207;SDS011;58938;49.868;8.646;2023-08-01T10:14:28;4.53;;;1.70;;
71207;SDS011;58938;49.868;8.646;2023-08-01T10:16:54;5.03;;;1.80;;
71207;SDS011;58938;49.868;8.646;2023-08-01T10:19:20;4.57;;;2.17;;
71207;SDS011;58938;49.868;8.646;2023-08-01T10:21:47;4.05;;;1.70;;
71207;SDS011;58938;49.868;8.646;2023-08-01T10:24:13;4.20;;;2.05;;
71207;SDS011;58938;49.868;8.646;2023-08-01T10:26:40;4.43;;;1.70;;
71207;SDS011;58938;49.868;8.646;2023-08-01T10:29:06;4.45;;;2.08;;
71207;SDS011;58938;49.868;8.646;2023-08-01T10:31:32;4.07;;;1.98;;
71207;SDS011;58938;49.868;8.646;2023-08-01T10:34:05;4.03;;;1.88;;
71207;SDS011;58938;49.868;8.646;2023-08-01T10:36:31;4.80;;;1.90;;
71207;SDS011;58938;49.868;8.646;2023-08-01T10:38:58;5.93;;;1.63;;
71207;SDS011;58938;49.868;8.646;2023-08-01T10:43:50;3.78;;;1.45;;
71207;SDS011;58938;49.868;8.646;2023-08-01T10:46:16;5.00;;;1.83;;
71207;SDS011;58938;49.868;8.646;2023-08-01T10:48:49;4.10;;;1.70;;
71207;SDS011;58938;49.868;8.646;2023-08-01T10:51:15;5.55;;;2.00;;
71207;SDS011;58938;49.868;8.646;2023-08-01T10:53:41;5.13;;;1.52;;
71207;SDS011;58938;49.868;8.646;2023-08-01T10:56:07;4.00;;;1.77;;
71207;SDS011;58938;49.868;8.646;2023-08-01T10:58:34;10.10;;;3.72;;
71207;SDS011;58938;49.868;8.646;2023-08-01T11:01:00;5.03;;;1.90;;
71207;SDS011;58938;49.868;8.646;2023-08-01T11:03:35;5.10;;;2.20;;
71207;SDS011;58938;49.868;8.646;2023-08-01T11:06:01;4.55;;;1.80;;
71207;SDS011;58938;49.868;8.646;2023-08-01T11:08:38;4.63;;;1.85;;
71207;SDS011;58938;49.868;8.646;2023-08-01T11:11:04;4.50;;;2.07;;
71207;SDS011;58938;49.868;8.646;2023-08-01T11:13:31;4.75;;;2.10;;
71207;SDS011;58938;49.868;8.646;2023-08-01T11:15:59;6.50;;;2.03;;
71207;SDS011;58938;49.868;8.646;2023-08-01T11:18:25;4.95;;;1.80;;
71207;SDS011;58938;49.868;8.646;2023-08-01T11:20:51;6.88;;;2.10;;
71207;SDS011;58938;49.868;8.646;2023-08-01T11:23:17;5.87;;;1.77;;
71207;SDS011;58938;49.868;8.646;2023-08-01T11:25:43;5.80;;;2.20;;
71207;SDS011;58938;49.868;8.646;2023-08-01T11:28:11;5.88;;;1.58;;
71207;SDS011;58938;49.868;8.646;2023-08-01T11:30:38;7.10;;;1.95;;
71207;SDS011;58938;49.868;8.646;2023-08-01T11:33:18;6.03;;;2.07;;
71207;SDS011;58938;49.868;8.646;2023-08-01T11:35:45;5.00;;;1.92;;
71207;SDS011;58938;49.868;8.646;2023-08-01T11:38:11;5.97;;;1.95;;
71207;SDS011;58938;49.868;8.646;2023-08-01T11:40:38;5.97;;;1.80;;
71207;SDS011;58938;49.868;8.646;2023-08-01T11:43:04;5.93;;;1.75;;
71207;SDS011;58938;49.868;8.646;2023-08-01T11:45:30;5.40;;;1.77;;
71207;SDS011;58938;49.868;8.646;2023-08-01T11:47:56;5.85;;;1.63;;
71207;SDS011;58938;49.868;8.646;2023-08-01T11:50:23;3.72;;;1.65;;
71207;SDS011;58938;49.868;8.646;2023-08-01T11:52:50;5.07;;;1.67;;
71207;SDS011;58938;49.868;8.646;2023-08-01T11:55:19;4.97;;;1.60;;
71207;SDS011;58938;49.868;8.646;2023-08-01T11:57:55;6.20;;;1.85;;
71207;SDS011;58938;49.868;8.646;2023-08-01T12:00:22;4.75;;;1.65;;
71207;SDS011;58938;49.868;8.646;2023-08-01T12:02:48;5.80;;;2.05;;
71207;SDS011;58938;49.868;8.646;2023-08-01T12:05:20;4.35;;;1.80;;
71207;SDS011;58938;49.868;8.646;2023-08-01T12:07:47;4.40;;;1.63;;
71207;SDS011;58938;49.868;8.646;2023-08-01T12:10:12;3.97;;;1.63;;
71207;SDS011;58938;49.868;8.646;2023-08-01T12:12:43;5.55;;;1.80;;
71207;SDS011;58938;49.868;8.646;2023-08-01T12:15:09;4.55;;;1.67;;
71207;SDS011;58938;49.868;8.646;2023-08-01T12:17:35;4.70;;;2.10;;
71207;SDS011;58938;49.868;8.646;2023-08-01T12:20:01;5.70;;;1.83;;
71207;SDS011;58938;49.868;8.646;2023-08-01T12:22:27;4.60;;;1.83;;
71207;SDS011;58938;49.868;8.646;2023-08-01T12:24:53;3.80;;;1.35;;
71207;SDS011;58938;49.868;8.646;2023-08-01T12:27:19;4.10;;;1.70;;
71207;SDS011;58938;49.868;8.646;2023-08-01T12:29:45;3.95;;;1.52;;
71207;SDS011;58938;49.868;8.646;2023-08-01T12:32:11;4.60;;;1.77;;
71207;SDS011;58938;49.868;8.646;2023-08-01T12:34:39;5.90;;;2.13;;
71207;SDS011;58938;49.868;8.646;2023-08-01T12:37:05;5.10;;;1.80;;
71207;SDS011;58938;49.868;8.646;2023-08-01T12:39:31;5.55;;;1.83;;
71207;SDS011;58938;49.868;8.646;2023-08-01T12:41:57;7.65;;;2.50;;
71207;SDS011;58938;49.868;8.646;2023-08-01T12:44:23;4.78;;;1.70;;
71207;SDS011;58938;49.868;8.646;2023-08-01T12:46:49;6.53;;;1.57;;
71207;SDS011;58938;49.868;8.646;2023-08-01T12:49:14;4.28;;;1.60;;
71207;SDS011;58938;49.868;8.646;2023-08-01T12:51:40;4.15;;;1.27;;
71207;SDS011;58938;49.868;8.646;2023-08-01T12:54:06;4.95;;;1.50;;
71207;SDS011;58938;49.868;8.646;2023-08-01T12:56:32;4.63;;;1.60;;
71207;SDS011;58938;49.868;8.646;2023-08-01T12:58:58;4.90;;;1.42;;
71207;SDS011;58938;49.868;8.646;2023-08-01T13:01:24;5.97;;;1.67;;
71207;SDS011;58938;49.868;8.646;2023-08-01T13:03:50;5.53;;;1.50;;
71207;SDS011;58938;49.868;8.646;2023-08-01T13:06:16;3.60;;;1.23;;
71207;SDS011;58938;49.868;8.646;2023-08-01T13:08:42;4.35;;;1.50;;
71207;SDS011;58938;49.868;8.646;2023-08-01T13:11:09;6.35;;;1.58;;
71207;SDS011;58938;49.868;8.646;2023-08-01T13:13:35;5.40;;;1.85;;
71207;SDS011;58938;49.868;8.646;2023-08-01T13:16:01;4.60;;;1.77;;
71207;SDS011;58938;49.868;8.646;2023-08-01T13:18:27;3.97;;;1.85;;
71207;SDS011;58938;49.868;8.646;2023-08-01T13:20:53;5.10;;;1.55;;
71207;SDS011;58938;49.868;8.646;2023-08-01T13:23:19;4.20;;;1.80;;
71207;SDS011;58938;49.868;8.646;2023-08-01T13:25:45;5.03;;;1.70;;
71207;SDS011;58938;49.868;8.646;2023-08-01T13:28:12;6.72;;;1.75;;
71207;SDS011;58938;49.868;8.646;2023-08-01T13:30:38;5.60;;;1.40;;
71207;SDS011;58938;49.868;8.646;2023-08-01T13:33:04;4.47;;;1.83;;
71207;SDS011;58938;49.868;8.646;2023-08-01T13:35:30;4.00;;;1.48;;
71207;SDS011;58938;49.868;8.646;2023-08-01T13:37:56;5.88;;;1.52;;
71207;SDS011;58938;49.868;8.646;2023-08-01T13:40:22;5.43;;;1.92;;
71207;SDS011;58938;49.868;8.646;2023-08-01T13:42:48;7.27;;;1.60;;
71207;SDS011;58938;49.868;8.646;2023-08-01T13:45:14;5.95;;;1.40;;
71207;SDS011;58938;49.868;8.646;2023-08-01T13:47:40;5.20;;;1.88;;
71207;SDS011;58938;49.868;8.646;2023-08-01T13:50:06;6.30;;;1.92;;
71207;SDS011;58938;49.868;8.646;2023-08-01T13:52:32;5.17;;;1.63;;
71207;SDS011;58938;49.868;8.646;2023-08-01T13:54:58;4.60;;;2.00;;
71207;SDS011;58938;49.868;8.646;2023-08-01T13:57:25;4.95;;;1.80;;
71207;SDS011;58938;49.868;8.646;2023-08-01T13:59:51;5.00;;;1.95;;
71207;SDS011;58938;49.868;8.646;2023-08-01T14:02:17;4.03;;;1.73;;
71207;SDS011;58938;49.868;8.646;2023-08-01T14:04:43;4.43;;;1.50;;
71207;SDS011;58938;49.868;8.646;2023-08-01T14:07:09;5.00;;;1.85;;
71207;SDS011;58938;49.868;8.646;2023-08-01T14:09:35;5.20;;;2.08;;
71207;SDS011;58938;49.868;8.646;2023-08-01T14:12:01;5.07;;;1.60;;
71207;SDS011;58938;49.868;8.646;2023-08-01T14:14:27;5.45;;;1.75;;
71207;SDS011;58938;49.868;8.646;2023-08-01T14:16:53;4.60;;;2.00;;
71207;SDS011;58938;49.868;8.646;2023-08-01T14:19:19;5.65;;;2.00;;
71207;SDS011;58938;49.868;8.646;2023-08-01T14:21:45;5.45;;;2.50;;
71207;SDS011;58938;49.868;8.646;2023-08-01T14:24:11;5.20;;;1.90;;
71207;SDS011;58938;49.868;8.646;2023-08-01T14:26:37;5.60;;;1.83;;
71207;SDS011;58938;49.868;8.646;2023-08-01T14:29:04;5.85;;;2.50;;
71207;SDS011;58938;49.868;8.646;2023-08-01T14:31:30;5.65;;;2.42;;
71207;SDS011;58938;49.868;8.646;2023-08-01T14:33:56;7.10;;;2.30;;
71207;SDS011;58938;49.868;8.646;2023-08-01T14:36:22;5.32;;;2.53;;
71207;SDS011;58938;49.868;8.646;2023-08-01T14:38:48;6.25;;;2.30;;
71207;SDS011;58938;49.868;8.646;2023-08-01T14:41:19;6.75;;;2.65;;
71207;SDS011;58938;49.868;8.646;2023-08-01T14:43:45;10.50;;;2.83;;
71207;SDS011;58938;49.868;8.646;2023-08-01T14:46:11;9.60;;;3.15;;